Airfield :
LOGIN :

Register | Disclaimer

   EN    FR    IT 

 










Legend :    VFR   Marginal VFR   IFR   Intensive IFR   Very Intensive IFR
Visi :
Ceiling :
>= 8 km
>= 3000ft
5 to 8 km
1000 to 3000 ft
1500m to 5 km
500 to 1000 ft
800 to 1500m
200 to 500 ft
< 800m
< 200 ft
Symbols :   Thunderstorms  Fog  Heavy snow  Heavy precipitations  Wind > 20 kt
SIGMETs :     Misc.  Thunderstorms  Icing  Turbulence  Mountain Waves  Volcanic Ashes







- Airport Elevation : 768 ft
- IATA code : MXP


LIMC - Milano Malpensa

CURRENT METAR :
  • 262120Z 03002KT CAVOK 14/11 Q1023 NOSIG

EXPIRED METARs :
  • 262050Z VRB01KT CAVOK 13/11 Q1023 NOSIG
  • 262020Z 03003KT CAVOK 13/11 Q1023 NOSIG
  • 261950Z VRB02KT CAVOK 14/10 Q1023 NOSIG
  • 261920Z 10002KT CAVOK 15/11 Q1023 NOSIG
  • 261850Z 08003KT 020V160 CAVOK 16/11 Q1023 NOSIG
  • 261820Z 03004KT CAVOK 18/11 Q1022 NOSIG

TAF TAF LIMC
Valid from the 26 at 18:00 until the 28 at 00:00 UTC


261700Z 2618/2724 VRB05KT 9999 SCT070
No reported NOTAMs for that airfield.



MET'MAP, your aeronautical weather chart ! - Copyright ORBIFLY December 2007 - Disclaimer

ORBIFLY MET'MAP TEAM :

Programming & Development : Alexandra Zaïnal
Concept & Development : Baudouin d'Aumeries
Co-Development & Prog : Marc-Olivier Méhu
Technical & hardware support : Manuel Goepfert

Contact : metmap@orbifly.com




SOURCES & CREDITS :

   NOAA